sensor_id;sensor_type;location;lat;lon;timestamp;P1;durP1;ratioP1;P2;durP2;ratioP2
75537;SDS011;64121;48.666;8.114;2023-06-10T00:00:38;7.85;;;7.10;;
75537;SDS011;64121;48.666;8.114;2023-06-10T00:03:03;7.38;;;6.68;;
75537;SDS011;64121;48.666;8.114;2023-06-10T00:05:29;7.60;;;6.90;;
75537;SDS011;64121;48.666;8.114;2023-06-10T00:07:54;7.55;;;6.85;;
75537;SDS011;64121;48.666;8.114;2023-06-10T00:10:19;8.63;;;6.90;;
75537;SDS011;64121;48.666;8.114;2023-06-10T00:12:45;8.80;;;7.50;;
75537;SDS011;64121;48.666;8.114;2023-06-10T00:15:11;7.85;;;7.15;;
75537;SDS011;64121;48.666;8.114;2023-06-10T00:17:37;7.15;;;6.45;;
75537;SDS011;64121;48.666;8.114;2023-06-10T00:20:02;8.02;;;6.70;;
75537;SDS011;64121;48.666;8.114;2023-06-10T00:22:28;7.47;;;6.78;;
75537;SDS011;64121;48.666;8.114;2023-06-10T00:24:53;7.35;;;6.65;;
75537;SDS011;64121;48.666;8.114;2023-06-10T00:27:19;6.97;;;6.28;;
75537;SDS011;64121;48.666;8.114;2023-06-10T00:29:44;6.88;;;6.22;;
75537;SDS011;64121;48.666;8.114;2023-06-10T00:32:11;7.18;;;6.47;;
75537;SDS011;64121;48.666;8.114;2023-06-10T00:34:36;7.10;;;6.38;;
75537;SDS011;64121;48.666;8.114;2023-06-10T00:37:01;6.82;;;6.13;;
75537;SDS011;64121;48.666;8.114;2023-06-10T00:39:27;6.57;;;5.97;;
75537;SDS011;64121;48.666;8.114;2023-06-10T00:41:52;7.60;;;6.85;;
75537;SDS011;64121;48.666;8.114;2023-06-10T00:44:18;7.88;;;6.97;;
75537;SDS011;64121;48.666;8.114;2023-06-10T00:46:43;7.20;;;6.50;;
75537;SDS011;64121;48.666;8.114;2023-06-10T00:49:10;7.50;;;6.80;;
75537;SDS011;64121;48.666;8.114;2023-06-10T00:51:36;8.50;;;6.43;;
75537;SDS011;64121;48.666;8.114;2023-06-10T00:54:01;8.57;;;6.80;;
75537;SDS011;64121;48.666;8.114;2023-06-10T00:56:27;6.85;;;6.15;;
75537;SDS011;64121;48.666;8.114;2023-06-10T00:58:53;7.30;;;6.60;;
75537;SDS011;64121;48.666;8.114;2023-06-10T01:01:18;7.18;;;6.47;;
75537;SDS011;64121;48.666;8.114;2023-06-10T01:03:44;7.13;;;6.43;;
75537;SDS011;64121;48.666;8.114;2023-06-10T01:06:13;6.90;;;6.20;;
75537;SDS011;64121;48.666;8.114;2023-06-10T01:08:46;7.55;;;6.80;;
75537;SDS011;64121;48.666;8.114;2023-06-10T01:13:46;6.47;;;5.82;;
75537;SDS011;64121;48.666;8.114;2023-06-10T01:16:14;7.57;;;6.82;;
75537;SDS011;64121;48.666;8.114;2023-06-10T01:18:40;7.78;;;6.88;;
75537;SDS011;64121;48.666;8.114;2023-06-10T01:21:05;7.35;;;6.65;;
75537;SDS011;64121;48.666;8.114;2023-06-10T01:23:32;7.60;;;6.80;;
75537;SDS011;64121;48.666;8.114;2023-06-10T01:25:59;7.65;;;6.95;;
75537;SDS011;64121;48.666;8.114;2023-06-10T01:28:29;7.47;;;6.78;;
75537;SDS011;64121;48.666;8.114;2023-06-10T01:30:59;8.10;;;7.30;;
75537;SDS011;64121;48.666;8.114;2023-06-10T01:33:28;8.30;;;7.50;;
75537;SDS011;64121;48.666;8.114;2023-06-10T01:35:56;7.65;;;6.95;;
75537;SDS011;64121;48.666;8.114;2023-06-10T01:38:23;9.63;;;7.38;;
75537;SDS011;64121;48.666;8.114;2023-06-10T01:40:52;11.50;;;8.27;;
75537;SDS011;64121;48.666;8.114;2023-06-10T01:43:20;8.25;;;7.55;;
75537;SDS011;64121;48.666;8.114;2023-06-10T01:45:46;8.75;;;7.38;;
75537;SDS011;64121;48.666;8.114;2023-06-10T01:48:11;9.32;;;8.18;;
75537;SDS011;64121;48.666;8.114;2023-06-10T01:50:36;9.73;;;8.20;;
75537;SDS011;64121;48.666;8.114;2023-06-10T01:53:03;9.00;;;8.15;;
75537;SDS011;64121;48.666;8.114;2023-06-10T01:55:28;9.13;;;8.23;;
75537;SDS011;64121;48.666;8.114;2023-06-10T01:57:55;8.85;;;7.90;;
75537;SDS011;64121;48.666;8.114;2023-06-10T02:00:20;9.60;;;8.60;;
75537;SDS011;64121;48.666;8.114;2023-06-10T02:02:46;9.98;;;8.30;;
75537;SDS011;64121;48.666;8.114;2023-06-10T02:05:11;8.35;;;7.55;;
75537;SDS011;64121;48.666;8.114;2023-06-10T02:07:36;9.82;;;8.82;;
75537;SDS011;64121;48.666;8.114;2023-06-10T02:10:02;7.82;;;7.10;;
75537;SDS011;64121;48.666;8.114;2023-06-10T02:12:28;9.52;;;8.63;;
75537;SDS011;64121;48.666;8.114;2023-06-10T02:14:54;9.63;;;7.80;;
75537;SDS011;64121;48.666;8.114;2023-06-10T02:17:20;8.80;;;7.75;;
75537;SDS011;64121;48.666;8.114;2023-06-10T02:19:45;9.25;;;8.35;;
75537;SDS011;64121;48.666;8.114;2023-06-10T02:22:10;9.30;;;8.40;;
75537;SDS011;64121;48.666;8.114;2023-06-10T02:24:36;9.20;;;8.30;;
75537;SDS011;64121;48.666;8.114;2023-06-10T02:27:01;9.52;;;8.63;;
75537;SDS011;64121;48.666;8.114;2023-06-10T02:29:27;9.40;;;8.55;;
75537;SDS011;64121;48.666;8.114;2023-06-10T02:31:54;10.13;;;8.65;;
75537;SDS011;64121;48.666;8.114;2023-06-10T02:34:19;10.38;;;7.97;;
75537;SDS011;64121;48.666;8.114;2023-06-10T02:36:44;9.23;;;8.43;;
75537;SDS011;64121;48.666;8.114;2023-06-10T02:39:10;9.95;;;8.23;;
75537;SDS011;64121;48.666;8.114;2023-06-10T02:41:35;10.38;;;9.27;;
75537;SDS011;64121;48.666;8.114;2023-06-10T02:44:00;10.05;;;9.05;;
75537;SDS011;64121;48.666;8.114;2023-06-10T02:46:26;10.38;;;8.88;;
75537;SDS011;64121;48.666;8.114;2023-06-10T02:48:52;10.43;;;9.43;;
75537;SDS011;64121;48.666;8.114;2023-06-10T02:51:18;10.15;;;9.23;;
75537;SDS011;64121;48.666;8.114;2023-06-10T02:53:43;8.95;;;8.15;;
75537;SDS011;64121;48.666;8.114;2023-06-10T02:56:08;9.70;;;8.70;;
75537;SDS011;64121;48.666;8.114;2023-06-10T02:58:34;10.18;;;9.07;;
75537;SDS011;64121;48.666;8.114;2023-06-10T03:00:59;9.95;;;8.68;;
75537;SDS011;64121;48.666;8.114;2023-06-10T03:03:25;9.20;;;8.40;;
75537;SDS011;64121;48.666;8.114;2023-06-10T03:05:51;9.18;;;8.07;;
75537;SDS011;64121;48.666;8.114;2023-06-10T03:08:17;9.43;;;8.52;;
75537;SDS011;64121;48.666;8.114;2023-06-10T03:10:42;10.00;;;8.65;;
75537;SDS011;64121;48.666;8.114;2023-06-10T03:13:07;10.15;;;8.50;;
75537;SDS011;64121;48.666;8.114;2023-06-10T03:15:33;9.85;;;8.23;;
75537;SDS011;64121;48.666;8.114;2023-06-10T03:17:58;9.82;;;8.82;;
75537;SDS011;64121;48.666;8.114;2023-06-10T03:20:24;9.40;;;8.18;;
75537;SDS011;64121;48.666;8.114;2023-06-10T03:22:50;9.48;;;8.43;;
75537;SDS011;64121;48.666;8.114;2023-06-10T03:25:16;9.25;;;8.35;;
75537;SDS011;64121;48.666;8.114;2023-06-10T03:27:41;8.80;;;7.95;;
75537;SDS011;64121;48.666;8.114;2023-06-10T03:30:07;9.57;;;8.68;;
75537;SDS011;64121;48.666;8.114;2023-06-10T03:32:33;10.07;;;9.07;;
75537;SDS011;64121;48.666;8.114;2023-06-10T03:34:58;9.75;;;8.75;;
75537;SDS011;64121;48.666;8.114;2023-06-10T03:37:24;9.02;;;8.10;;
75537;SDS011;64121;48.666;8.114;2023-06-10T03:39:50;9.35;;;8.45;;
75537;SDS011;64121;48.666;8.114;2023-06-10T03:42:16;9.38;;;8.27;;
75537;SDS011;64121;48.666;8.114;2023-06-10T03:44:41;12.63;;;8.57;;
75537;SDS011;64121;48.666;8.114;2023-06-10T03:47:06;9.15;;;8.20;;
75537;SDS011;64121;48.666;8.114;2023-06-10T03:49:32;10.15;;;8.63;;
75537;SDS011;64121;48.666;8.114;2023-06-10T03:51:57;8.55;;;7.75;;
75537;SDS011;64121;48.666;8.114;2023-06-10T03:54:23;8.88;;;8.07;;
75537;SDS011;64121;48.666;8.114;2023-06-10T03:56:49;10.88;;;8.05;;
75537;SDS011;64121;48.666;8.114;2023-06-10T03:59:15;9.60;;;8.70;;
75537;SDS011;64121;48.666;8.114;2023-06-10T04:01:40;8.57;;;7.75;;
75537;SDS011;64121;48.666;8.114;2023-06-10T04:04:05;9.55;;;8.55;;
75537;SDS011;64121;48.666;8.114;2023-06-10T04:06:31;9.63;;;8.63;;
75537;SDS011;64121;48.666;8.114;2023-06-10T04:08:56;9.85;;;8.85;;
75537;SDS011;64121;48.666;8.114;2023-06-10T04:11:21;9.93;;;8.93;;
75537;SDS011;64121;48.666;8.114;2023-06-10T04:13:48;10.35;;;9.13;;
75537;SDS011;64121;48.666;8.114;2023-06-10T04:16:14;9.60;;;8.60;;
75537;SDS011;64121;48.666;8.114;2023-06-10T04:18:39;9.38;;;8.48;;
75537;SDS011;64121;48.666;8.114;2023-06-10T04:21:04;11.82;;;9.52;;
75537;SDS011;64121;48.666;8.114;2023-06-10T04:23:30;8.90;;;8.10;;
75537;SDS011;64121;48.666;8.114;2023-06-10T04:25:55;10.15;;;8.70;;
75537;SDS011;64121;48.666;8.114;2023-06-10T04:28:20;11.93;;;9.38;;
75537;SDS011;64121;48.666;8.114;2023-06-10T04:30:47;9.18;;;8.23;;
75537;SDS011;64121;48.666;8.114;2023-06-10T04:33:13;10.02;;;9.02;;
75537;SDS011;64121;48.666;8.114;2023-06-10T04:35:38;11.25;;;9.90;;
75537;SDS011;64121;48.666;8.114;2023-06-10T04:38:03;10.10;;;9.05;;
75537;SDS011;64121;48.666;8.114;2023-06-10T04:40:29;10.88;;;9.27;;
75537;SDS011;64121;48.666;8.114;2023-06-10T04:42:54;9.27;;;8.40;;
75537;SDS011;64121;48.666;8.114;2023-06-10T04:45:19;11.13;;;8.77;;
75537;SDS011;64121;48.666;8.114;2023-06-10T04:47:46;10.50;;;9.05;;
75537;SDS011;64121;48.666;8.114;2023-06-10T04:50:11;10.23;;;9.00;;
75537;SDS011;64121;48.666;8.114;2023-06-10T04:52:36;9.20;;;8.30;;
75537;SDS011;64121;48.666;8.114;2023-06-10T04:55:02;8.75;;;7.95;;
75537;SDS011;64121;48.666;8.114;2023-06-10T04:57:27;9.20;;;8.40;;
75537;SDS011;64121;48.666;8.114;2023-06-10T04:59:53;10.18;;;8.63;;
75537;SDS011;64121;48.666;8.114;2023-06-10T05:02:18;9.05;;;8.23;;
75537;SDS011;64121;48.666;8.114;2023-06-10T05:04:45;9.57;;;8.57;;
75537;SDS011;64121;48.666;8.114;2023-06-10T05:07:10;10.23;;;8.65;;
75537;SDS011;64121;48.666;8.114;2023-06-10T05:09:35;12.30;;;9.45;;
75537;SDS011;64121;48.666;8.114;2023-06-10T05:12:01;10.00;;;9.10;;
75537;SDS011;64121;48.666;8.114;2023-06-10T05:14:26;10.40;;;9.40;;
75537;SDS011;64121;48.666;8.114;2023-06-10T05:16:51;9.93;;;8.93;;
75537;SDS011;64121;48.666;8.114;2023-06-10T05:19:17;10.25;;;9.25;;
75537;SDS011;64121;48.666;8.114;2023-06-10T05:21:44;10.82;;;9.82;;
75537;SDS011;64121;48.666;8.114;2023-06-10T05:24:09;10.90;;;9.80;;
75537;SDS011;64121;48.666;8.114;2023-06-10T05:26:35;10.38;;;9.48;;
75537;SDS011;64121;48.666;8.114;2023-06-10T05:29:00;10.57;;;9.68;;
75537;SDS011;64121;48.666;8.114;2023-06-10T05:31:25;9.93;;;8.98;;
75537;SDS011;64121;48.666;8.114;2023-06-10T05:33:51;10.38;;;9.38;;
75537;SDS011;64121;48.666;8.114;2023-06-10T05:36:16;9.95;;;8.95;;
75537;SDS011;64121;48.666;8.114;2023-06-10T05:38:43;10.88;;;9.38;;
75537;SDS011;64121;48.666;8.114;2023-06-10T05:41:08;10.77;;;9.68;;
75537;SDS011;64121;48.666;8.114;2023-06-10T05:43:33;10.77;;;9.68;;
75537;SDS011;64121;48.666;8.114;2023-06-10T05:45:59;9.80;;;8.90;;
75537;SDS011;64121;48.666;8.114;2023-06-10T05:48:24;9.45;;;8.55;;
75537;SDS011;64121;48.666;8.114;2023-06-10T05:50:49;10.30;;;9.30;;
75537;SDS011;64121;48.666;8.114;2023-06-10T05:53:15;10.65;;;9.65;;
75537;SDS011;64121;48.666;8.114;2023-06-10T05:55:42;10.27;;;9.32;;
75537;SDS011;64121;48.666;8.114;2023-06-10T05:58:07;11.27;;;10.20;;
75537;SDS011;64121;48.666;8.114;2023-06-10T06:00:33;11.27;;;10.13;;
75537;SDS011;64121;48.666;8.114;2023-06-10T06:02:58;11.02;;;10.02;;
75537;SDS011;64121;48.666;8.114;2023-06-10T06:05:23;9.98;;;9.07;;
75537;SDS011;64121;48.666;8.114;2023-06-10T06:07:49;10.30;;;9.40;;
75537;SDS011;64121;48.666;8.114;2023-06-10T06:10:16;11.45;;;10.25;;
75537;SDS011;64121;48.666;8.114;2023-06-10T06:12:43;10.95;;;9.73;;
75537;SDS011;64121;48.666;8.114;2023-06-10T06:15:09;11.70;;;10.15;;
75537;SDS011;64121;48.666;8.114;2023-06-10T06:17:35;10.45;;;9.35;;
75537;SDS011;64121;48.666;8.114;2023-06-10T06:20:00;10.60;;;9.63;;
75537;SDS011;64121;48.666;8.114;2023-06-10T06:22:26;10.45;;;9.30;;
75537;SDS011;64121;48.666;8.114;2023-06-10T06:24:51;11.18;;;9.23;;
75537;SDS011;64121;48.666;8.114;2023-06-10T06:27:16;11.07;;;9.95;;
75537;SDS011;64121;48.666;8.114;2023-06-10T06:29:43;9.38;;;8.45;;
75537;SDS011;64121;48.666;8.114;2023-06-10T06:32:08;9.88;;;8.88;;
75537;SDS011;64121;48.666;8.114;2023-06-10T06:34:34;9.80;;;8.90;;
75537;SDS011;64121;48.666;8.114;2023-06-10T06:36:59;11.02;;;9.77;;
75537;SDS011;64121;48.666;8.114;2023-06-10T06:39:24;9.80;;;8.90;;
75537;SDS011;64121;48.666;8.114;2023-06-10T06:41:50;9.93;;;8.95;;
75537;SDS011;64121;48.666;8.114;2023-06-10T06:44:15;10.73;;;9.55;;
75537;SDS011;64121;48.666;8.114;2023-06-10T06:46:42;9.48;;;8.57;;
75537;SDS011;64121;48.666;8.114;2023-06-10T06:49:07;10.98;;;9.98;;
75537;SDS011;64121;48.666;8.114;2023-06-10T06:51:32;10.35;;;9.43;;
75537;SDS011;64121;48.666;8.114;2023-06-10T06:53:58;10.65;;;9.70;;
75537;SDS011;64121;48.666;8.114;2023-06-10T06:56:23;10.00;;;9.00;;
75537;SDS011;64121;48.666;8.114;2023-06-10T06:58:49;10.27;;;9.18;;
75537;SDS011;64121;48.666;8.114;2023-06-10T07:01:14;10.48;;;8.98;;
75537;SDS011;64121;48.666;8.114;2023-06-10T07:03:41;9.95;;;9.05;;
75537;SDS011;64121;48.666;8.114;2023-06-10T07:06:06;10.43;;;9.38;;
75537;SDS011;64121;48.666;8.114;2023-06-10T07:08:32;10.30;;;9.30;;
75537;SDS011;64121;48.666;8.114;2023-06-10T07:10:57;10.38;;;9.20;;
75537;SDS011;64121;48.666;8.114;2023-06-10T07:13:22;10.20;;;9.23;;
75537;SDS011;64121;48.666;8.114;2023-06-10T07:15:48;11.32;;;9.43;;
75537;SDS011;64121;48.666;8.114;2023-06-10T07:18:14;10.00;;;9.10;;
75537;SDS011;64121;48.666;8.114;2023-06-10T07:20:41;10.25;;;9.35;;
75537;SDS011;64121;48.666;8.114;2023-06-10T07:23:07;10.88;;;9.13;;
75537;SDS011;64121;48.666;8.114;2023-06-10T07:25:32;9.63;;;8.75;;
75537;SDS011;64121;48.666;8.114;2023-06-10T07:27:57;10.05;;;9.02;;
75537;SDS011;64121;48.666;8.114;2023-06-10T07:30:22;9.27;;;8.30;;
75537;SDS011;64121;48.666;8.114;2023-06-10T07:32:48;9.25;;;8.45;;
75537;SDS011;64121;48.666;8.114;2023-06-10T07:35:13;9.68;;;8.70;;
75537;SDS011;64121;48.666;8.114;2023-06-10T07:37:40;9.63;;;8.73;;
75537;SDS011;64121;48.666;8.114;2023-06-10T07:40:06;10.38;;;9.35;;
75537;SDS011;64121;48.666;8.114;2023-06-10T07:42:32;9.95;;;9.05;;
75537;SDS011;64121;48.666;8.114;2023-06-10T07:44:59;9.73;;;8.90;;
75537;SDS011;64121;48.666;8.114;2023-06-10T07:47:24;9.10;;;8.30;;
75537;SDS011;64121;48.666;8.114;2023-06-10T07:49:50;10.75;;;9.70;;
75537;SDS011;64121;48.666;8.114;2023-06-10T07:52:15;9.45;;;8.57;;
75537;SDS011;64121;48.666;8.114;2023-06-10T07:54:42;9.48;;;8.57;;
75537;SDS011;64121;48.666;8.114;2023-06-10T07:57:07;9.90;;;8.90;;
75537;SDS011;64121;48.666;8.114;2023-06-10T07:59:32;9.02;;;8.20;;
75537;SDS011;64121;48.666;8.114;2023-06-10T08:01:58;9.63;;;8.82;;
75537;SDS011;64121;48.666;8.114;2023-06-10T08:04:23;8.50;;;7.70;;
75537;SDS011;64121;48.666;8.114;2023-06-10T08:06:48;9.05;;;8.25;;
75537;SDS011;64121;48.666;8.114;2023-06-10T08:09:14;8.73;;;7.88;;
75537;SDS011;64121;48.666;8.114;2023-06-10T08:11:41;9.05;;;8.30;;
75537;SDS011;64121;48.666;8.114;2023-06-10T08:14:06;10.38;;;8.77;;
75537;SDS011;64121;48.666;8.114;2023-06-10T08:16:31;8.55;;;7.72;;
75537;SDS011;64121;48.666;8.114;2023-06-10T08:18:57;9.10;;;8.30;;
75537;SDS011;64121;48.666;8.114;2023-06-10T08:21:22;8.57;;;7.88;;
75537;SDS011;64121;48.666;8.114;2023-06-10T08:23:47;9.43;;;8.50;;
75537;SDS011;64121;48.666;8.114;2023-06-10T08:26:13;9.27;;;8.40;;
75537;SDS011;64121;48.666;8.114;2023-06-10T08:28:39;8.75;;;7.75;;
75537;SDS011;64121;48.666;8.114;2023-06-10T08:31:05;9.20;;;7.57;;
75537;SDS011;64121;48.666;8.114;2023-06-10T08:33:30;8.20;;;6.60;;
75537;SDS011;64121;48.666;8.114;2023-06-10T08:35:55;6.88;;;6.10;;
75537;SDS011;64121;48.666;8.114;2023-06-10T08:38:21;6.35;;;5.78;;
75537;SDS011;64121;48.666;8.114;2023-06-10T08:40:46;6.68;;;6.03;;
75537;SDS011;64121;48.666;8.114;2023-06-10T08:43:15;6.82;;;6.22;;
75537;SDS011;64121;48.666;8.114;2023-06-10T08:45:46;6.43;;;5.82;;
75537;SDS011;64121;48.666;8.114;2023-06-10T08:48:14;6.10;;;5.60;;
75537;SDS011;64121;48.666;8.114;2023-06-10T08:50:41;7.32;;;5.90;;
75537;SDS011;64121;48.666;8.114;2023-06-10T08:53:07;8.15;;;6.18;;
75537;SDS011;64121;48.666;8.114;2023-06-10T08:55:33;5.97;;;5.40;;
75537;SDS011;64121;48.666;8.114;2023-06-10T08:58:01;6.32;;;5.70;;
75537;SDS011;64121;48.666;8.114;2023-06-10T09:00:27;6.55;;;5.95;;
75537;SDS011;64121;48.666;8.114;2023-06-10T09:02:55;6.05;;;5.38;;
75537;SDS011;64121;48.666;8.114;2023-06-10T09:05:21;5.63;;;5.07;;
75537;SDS011;64121;48.666;8.114;2023-06-10T09:07:47;6.22;;;5.60;;
75537;SDS011;64121;48.666;8.114;2023-06-10T09:10:13;5.63;;;5.05;;
75537;SDS011;64121;48.666;8.114;2023-06-10T09:12:38;5.40;;;4.90;;
75537;SDS011;64121;48.666;8.114;2023-06-10T09:15:04;5.70;;;5.07;;
75537;SDS011;64121;48.666;8.114;2023-06-10T09:17:30;5.38;;;4.88;;
75537;SDS011;64121;48.666;8.114;2023-06-10T09:19:57;5.63;;;4.95;;
75537;SDS011;64121;48.666;8.114;2023-06-10T09:22:22;5.85;;;5.22;;
75537;SDS011;64121;48.666;8.114;2023-06-10T09:24:48;6.38;;;5.70;;
75537;SDS011;64121;48.666;8.114;2023-06-10T09:27:13;5.68;;;4.90;;
75537;SDS011;64121;48.666;8.114;2023-06-10T09:29:45;6.13;;;5.53;;
75537;SDS011;64121;48.666;8.114;2023-06-10T09:32:11;6.25;;;5.55;;
75537;SDS011;64121;48.666;8.114;2023-06-10T09:34:37;6.50;;;5.25;;
75537;SDS011;64121;48.666;8.114;2023-06-10T09:37:04;5.90;;;5.30;;
75537;SDS011;64121;48.666;8.114;2023-06-10T09:39:29;6.65;;;5.32;;
75537;SDS011;64121;48.666;8.114;2023-06-10T09:41:54;6.07;;;4.95;;
75537;SDS011;64121;48.666;8.114;2023-06-10T09:44:20;6.32;;;5.43;;
75537;SDS011;64121;48.666;8.114;2023-06-10T09:46:46;5.40;;;4.90;;
75537;SDS011;64121;48.666;8.114;2023-06-10T09:49:15;5.63;;;5.03;;
75537;SDS011;64121;48.666;8.114;2023-06-10T09:51:48;4.90;;;4.40;;
75537;SDS011;64121;48.666;8.114;2023-06-10T09:54:15;5.32;;;4.53;;
75537;SDS011;64121;48.666;8.114;2023-06-10T09:56:41;4.55;;;4.10;;
75537;SDS011;64121;48.666;8.114;2023-06-10T09:59:06;5.00;;;4.20;;
75537;SDS011;64121;48.666;8.114;2023-06-10T10:01:31;4.95;;;4.45;;
75537;SDS011;64121;48.666;8.114;2023-06-10T10:03:57;5.20;;;4.70;;
75537;SDS011;64121;48.666;8.114;2023-06-10T10:06:22;5.15;;;4.65;;
75537;SDS011;64121;48.666;8.114;2023-06-10T10:08:48;4.93;;;4.22;;
75537;SDS011;64121;48.666;8.114;2023-06-10T10:11:17;5.40;;;4.88;;
75537;SDS011;64121;48.666;8.114;2023-06-10T10:13:45;4.38;;;3.97;;
75537;SDS011;64121;48.666;8.114;2023-06-10T10:16:14;3.92;;;3.63;;
75537;SDS011;64121;48.666;8.114;2023-06-10T10:18:43;4.40;;;4.00;;
75537;SDS011;64121;48.666;8.114;2023-06-10T10:21:12;4.65;;;3.95;;
75537;SDS011;64121;48.666;8.114;2023-06-10T10:23:39;3.70;;;3.40;;
75537;SDS011;64121;48.666;8.114;2023-06-10T10:26:10;3.67;;;3.38;;
75537;SDS011;64121;48.666;8.114;2023-06-10T10:28:37;5.40;;;3.30;;
75537;SDS011;64121;48.666;8.114;2023-06-10T10:31:09;3.83;;;3.13;;
75537;SDS011;64121;48.666;8.114;2023-06-10T10:33:40;3.60;;;3.20;;
75537;SDS011;64121;48.666;8.114;2023-06-10T10:36:10;3.47;;;3.17;;
75537;SDS011;64121;48.666;8.114;2023-06-10T10:38:37;3.63;;;2.95;;
75537;SDS011;64121;48.666;8.114;2023-06-10T10:41:02;4.13;;;2.92;;
75537;SDS011;64121;48.666;8.114;2023-06-10T10:43:30;3.50;;;3.20;;
75537;SDS011;64121;48.666;8.114;2023-06-10T10:45:59;3.08;;;2.67;;
75537;SDS011;64121;48.666;8.114;2023-06-10T10:48:24;3.42;;;3.03;;
75537;SDS011;64121;48.666;8.114;2023-06-10T10:50:55;3.58;;;3.00;;
75537;SDS011;64121;48.666;8.114;2023-06-10T10:53:22;4.22;;;3.20;;
75537;SDS011;64121;48.666;8.114;2023-06-10T10:55:57;3.22;;;2.90;;
75537;SDS011;64121;48.666;8.114;2023-06-10T10:58:24;3.28;;;2.85;;
75537;SDS011;64121;48.666;8.114;2023-06-10T11:00:50;3.15;;;2.80;;
75537;SDS011;64121;48.666;8.114;2023-06-10T11:03:17;3.30;;;3.00;;
75537;SDS011;64121;48.666;8.114;2023-06-10T11:05:43;4.00;;;2.90;;
75537;SDS011;64121;48.666;8.114;2023-06-10T11:08:09;4.00;;;3.10;;
75537;SDS011;64121;48.666;8.114;2023-06-10T11:10:36;4.07;;;3.17;;
75537;SDS011;64121;48.666;8.114;2023-06-10T11:13:05;4.32;;;3.55;;
75537;SDS011;64121;48.666;8.114;2023-06-10T11:15:32;3.45;;;3.15;;
75537;SDS011;64121;48.666;8.114;2023-06-10T11:18:08;3.22;;;2.92;;
75537;SDS011;64121;48.666;8.114;2023-06-10T11:20:55;4.00;;;3.60;;
75537;SDS011;64121;48.666;8.114;2023-06-10T11:23:26;4.10;;;3.63;;
75537;SDS011;64121;48.666;8.114;2023-06-10T11:26:08;3.20;;;2.90;;
75537;SDS011;64121;48.666;8.114;2023-06-10T11:28:34;3.92;;;3.50;;
75537;SDS011;64121;48.666;8.114;2023-06-10T11:31:00;5.57;;;3.20;;
75537;SDS011;64121;48.666;8.114;2023-06-10T11:33:25;3.95;;;3.10;;
75537;SDS011;64121;48.666;8.114;2023-06-10T11:35:52;3.33;;;3.03;;
75537;SDS011;64121;48.666;8.114;2023-06-10T11:38:17;3.90;;;3.28;;
75537;SDS011;64121;48.666;8.114;2023-06-10T11:40:46;3.67;;;3.13;;
75537;SDS011;64121;48.666;8.114;2023-06-10T11:43:13;3.53;;;3.22;;
75537;SDS011;64121;48.666;8.114;2023-06-10T11:45:40;3.55;;;3.10;;
75537;SDS011;64121;48.666;8.114;2023-06-10T11:48:06;3.45;;;3.15;;
75537;SDS011;64121;48.666;8.114;2023-06-10T11:50:31;3.53;;;3.22;;
75537;SDS011;64121;48.666;8.114;2023-06-10T11:52:59;3.95;;;3.50;;
75537;SDS011;64121;48.666;8.114;2023-06-10T11:55:24;4.18;;;3.65;;
75537;SDS011;64121;48.666;8.114;2023-06-10T11:57:50;4.00;;;3.60;;
75537;SDS011;64121;48.666;8.114;2023-06-10T12:00:16;5.18;;;3.85;;
75537;SDS011;64121;48.666;8.114;2023-06-10T12:02:42;4.45;;;4.05;;
75537;SDS011;64121;48.666;8.114;2023-06-10T12:05:11;4.80;;;4.15;;
75537;SDS011;64121;48.666;8.114;2023-06-10T12:07:36;4.07;;;3.70;;
75537;SDS011;64121;48.666;8.114;2023-06-10T12:10:03;4.00;;;3.70;;
75537;SDS011;64121;48.666;8.114;2023-06-10T12:12:29;4.68;;;3.95;;
75537;SDS011;64121;48.666;8.114;2023-06-10T12:14:55;5.53;;;4.30;;
75537;SDS011;64121;48.666;8.114;2023-06-10T12:17:22;6.00;;;4.47;;
75537;SDS011;64121;48.666;8.114;2023-06-10T12:19:48;5.45;;;4.35;;
75537;SDS011;64121;48.666;8.114;2023-06-10T12:22:14;4.50;;;4.10;;
75537;SDS011;64121;48.666;8.114;2023-06-10T12:24:43;4.38;;;3.97;;
75537;SDS011;64121;48.666;8.114;2023-06-10T12:27:12;4.22;;;3.83;;
75537;SDS011;64121;48.666;8.114;2023-06-10T12:29:37;4.50;;;4.05;;
75537;SDS011;64121;48.666;8.114;2023-06-10T12:32:03;4.95;;;4.15;;
75537;SDS011;64121;48.666;8.114;2023-06-10T12:34:30;4.55;;;3.90;;
75537;SDS011;64121;48.666;8.114;2023-06-10T12:37:00;4.60;;;3.92;;
75537;SDS011;64121;48.666;8.114;2023-06-10T12:39:25;5.60;;;4.63;;
75537;SDS011;64121;48.666;8.114;2023-06-10T12:41:51;5.60;;;4.50;;
75537;SDS011;64121;48.666;8.114;2023-06-10T12:44:19;5.97;;;4.63;;
75537;SDS011;64121;48.666;8.114;2023-06-10T12:46:54;5.40;;;4.90;;
75537;SDS011;64121;48.666;8.114;2023-06-10T12:49:19;4.72;;;4.20;;
75537;SDS011;64121;48.666;8.114;2023-06-10T12:51:44;4.88;;;4.38;;
75537;SDS011;64121;48.666;8.114;2023-06-10T12:54:10;5.47;;;4.80;;
75537;SDS011;64121;48.666;8.114;2023-06-10T12:56:35;5.80;;;4.75;;
75537;SDS011;64121;48.666;8.114;2023-06-10T12:59:00;5.40;;;4.90;;
75537;SDS011;64121;48.666;8.114;2023-06-10T13:01:27;6.10;;;4.05;;
75537;SDS011;64121;48.666;8.114;2023-06-10T13:03:52;4.90;;;4.40;;
75537;SDS011;64121;48.666;8.114;2023-06-10T13:06:18;4.50;;;4.07;;
75537;SDS011;64121;48.666;8.114;2023-06-10T13:08:43;5.57;;;4.90;;
75537;SDS011;64121;48.666;8.114;2023-06-10T13:11:08;5.68;;;4.75;;
75537;SDS011;64121;48.666;8.114;2023-06-10T13:13:36;4.05;;;3.55;;
75537;SDS011;64121;48.666;8.114;2023-06-10T13:16:01;4.28;;;3.72;;
75537;SDS011;64121;48.666;8.114;2023-06-10T13:18:28;4.10;;;3.70;;
75537;SDS011;64121;48.666;8.114;2023-06-10T13:20:53;4.80;;;3.75;;
75537;SDS011;64121;48.666;8.114;2023-06-10T13:23:19;4.13;;;3.72;;
75537;SDS011;64121;48.666;8.114;2023-06-10T13:25:44;4.20;;;3.80;;
75537;SDS011;64121;48.666;8.114;2023-06-10T13:28:10;4.35;;;3.80;;
75537;SDS011;64121;48.666;8.114;2023-06-10T13:30:35;4.07;;;3.67;;
75537;SDS011;64121;48.666;8.114;2023-06-10T13:33:00;4.47;;;3.97;;
75537;SDS011;64121;48.666;8.114;2023-06-10T13:35:27;4.72;;;4.32;;
75537;SDS011;64121;48.666;8.114;2023-06-10T13:37:52;4.95;;;4.10;;
75537;SDS011;64121;48.666;8.114;2023-06-10T13:40:18;4.80;;;4.40;;
75537;SDS011;64121;48.666;8.114;2023-06-10T13:42:43;3.85;;;3.50;;
75537;SDS011;64121;48.666;8.114;2023-06-10T13:45:08;3.80;;;3.50;;
75537;SDS011;64121;48.666;8.114;2023-06-10T13:47:34;4.57;;;4.07;;
75537;SDS011;64121;48.666;8.114;2023-06-10T13:49:59;4.75;;;4.10;;
75537;SDS011;64121;48.666;8.114;2023-06-10T13:52:26;4.90;;;3.80;;
75537;SDS011;64121;48.666;8.114;2023-06-10T13:54:51;4.32;;;3.92;;
75537;SDS011;64121;48.666;8.114;2023-06-10T13:57:17;4.47;;;4.07;;
75537;SDS011;64121;48.666;8.114;2023-06-10T13:59:42;5.20;;;4.38;;
75537;SDS011;64121;48.666;8.114;2023-06-10T14:02:07;4.65;;;4.22;;
75537;SDS011;64121;48.666;8.114;2023-06-10T14:04:32;4.55;;;3.95;;
75537;SDS011;64121;48.666;8.114;2023-06-10T14:06:58;4.93;;;4.40;;
75537;SDS011;64121;48.666;8.114;2023-06-10T14:09:24;5.65;;;5.03;;
75537;SDS011;64121;48.666;8.114;2023-06-10T14:11:50;5.40;;;4.90;;
75537;SDS011;64121;48.666;8.114;2023-06-10T14:14:15;5.82;;;5.22;;
75537;SDS011;64121;48.666;8.114;2023-06-10T14:16:40;5.63;;;5.13;;
75537;SDS011;64121;48.666;8.114;2023-06-10T14:19:06;4.68;;;4.22;;
75537;SDS011;64121;48.666;8.114;2023-06-10T14:21:31;4.72;;;4.32;;
75537;SDS011;64121;48.666;8.114;2023-06-10T14:23:56;4.90;;;4.40;;
75537;SDS011;64121;48.666;8.114;2023-06-10T14:26:23;4.72;;;4.30;;
75537;SDS011;64121;48.666;8.114;2023-06-10T14:28:48;5.28;;;4.78;;
75537;SDS011;64121;48.666;8.114;2023-06-10T14:31:14;5.55;;;4.45;;
75537;SDS011;64121;48.666;8.114;2023-06-10T14:33:39;5.50;;;4.40;;
75537;SDS011;64121;48.666;8.114;2023-06-10T14:36:05;5.05;;;4.65;;
75537;SDS011;64121;48.666;8.114;2023-06-10T14:38:30;5.30;;;4.80;;
75537;SDS011;64121;48.666;8.114;2023-06-10T14:40:55;5.78;;;4.30;;